sensor_id;sensor_type;location;lat;lon;timestamp;temperature;humidity
22002;DHT22;11165;51.278;12.398;2022-08-21T00:00:47;18.50;99.90
22002;DHT22;11165;51.278;12.398;2022-08-21T00:03:14;18.50;99.90
22002;DHT22;11165;51.278;12.398;2022-08-21T00:05:44;18.50;99.90
22002;DHT22;11165;51.278;12.398;2022-08-21T00:08:10;18.50;99.90
22002;DHT22;11165;51.278;12.398;2022-08-21T00:10:36;18.50;99.90
22002;DHT22;11165;51.278;12.398;2022-08-21T00:13:04;18.50;99.90
22002;DHT22;11165;51.278;12.398;2022-08-21T00:15:31;18.50;99.90
22002;DHT22;11165;51.278;12.398;2022-08-21T00:17:57;18.50;99.90
22002;DHT22;11165;51.278;12.398;2022-08-21T00:20:25;18.40;99.90
22002;DHT22;11165;51.278;12.398;2022-08-21T00:22:51;18.40;99.90
22002;DHT22;11165;51.278;12.398;2022-08-21T00:25:17;18.30;99.90
22002;DHT22;11165;51.278;12.398;2022-08-21T00:27:43;18.30;99.90
22002;DHT22;11165;51.278;12.398;2022-08-21T00:30:11;18.30;99.90
22002;DHT22;11165;51.278;12.398;2022-08-21T00:32:38;18.40;99.90
22002;DHT22;11165;51.278;12.398;2022-08-21T00:35:11;18.40;99.90
22002;DHT22;11165;51.278;12.398;2022-08-21T00:37:39;18.30;99.90
22002;DHT22;11165;51.278;12.398;2022-08-21T00:40:09;18.40;99.90
22002;DHT22;11165;51.278;12.398;2022-08-21T00:42:36;18.40;99.90
22002;DHT22;11165;51.278;12.398;2022-08-21T00:45:03;18.30;99.90
22002;DHT22;11165;51.278;12.398;2022-08-21T00:47:29;18.40;99.90
22002;DHT22;11165;51.278;12.398;2022-08-21T00:49:54;18.30;99.90
22002;DHT22;11165;51.278;12.398;2022-08-21T00:52:22;18.30;99.90
22002;DHT22;11165;51.278;12.398;2022-08-21T00:54:50;18.40;99.90
22002;DHT22;11165;51.278;12.398;2022-08-21T00:57:24;18.30;99.90
22002;DHT22;11165;51.278;12.398;2022-08-21T00:59:52;18.30;99.90
22002;DHT22;11165;51.278;12.398;2022-08-21T01:02:19;18.30;99.90
22002;DHT22;11165;51.278;12.398;2022-08-21T01:04:45;18.30;99.90
22002;DHT22;11165;51.278;12.398;2022-08-21T01:07:12;18.30;99.90
22002;DHT22;11165;51.278;12.398;2022-08-21T01:12:07;18.20;99.90
22002;DHT22;11165;51.278;12.398;2022-08-21T01:14:34;18.30;99.90
22002;DHT22;11165;51.278;12.398;2022-08-21T01:17:01;18.20;99.90
22002;DHT22;11165;51.278;12.398;2022-08-21T01:19:28;18.20;99.90
22002;DHT22;11165;51.278;12.398;2022-08-21T01:21:55;18.20;99.90
22002;DHT22;11165;51.278;12.398;2022-08-21T01:24:21;18.20;99.90
22002;DHT22;11165;51.278;12.398;2022-08-21T01:26:48;18.20;99.90
22002;DHT22;11165;51.278;12.398;2022-08-21T01:29:16;18.20;99.90
22002;DHT22;11165;51.278;12.398;2022-08-21T01:31:45;18.20;99.90
22002;DHT22;11165;51.278;12.398;2022-08-21T01:34:11;18.20;99.90
22002;DHT22;11165;51.278;12.398;2022-08-21T01:36:37;18.20;99.90
22002;DHT22;11165;51.278;12.398;2022-08-21T01:39:03;18.20;99.90
22002;DHT22;11165;51.278;12.398;2022-08-21T01:41:29;18.20;99.90
22002;DHT22;11165;51.278;12.398;2022-08-21T01:43:54;18.20;99.90
22002;DHT22;11165;51.278;12.398;2022-08-21T01:46:20;18.30;99.90
22002;DHT22;11165;51.278;12.398;2022-08-21T01:48:46;18.20;99.90
22002;DHT22;11165;51.278;12.398;2022-08-21T01:51:11;18.20;99.90
22002;DHT22;11165;51.278;12.398;2022-08-21T01:53:37;18.30;99.90
22002;DHT22;11165;51.278;12.398;2022-08-21T01:56:08;18.20;99.90
22002;DHT22;11165;51.278;12.398;2022-08-21T01:58:34;18.20;99.90
22002;DHT22;11165;51.278;12.398;2022-08-21T02:01:00;18.20;99.90
22002;DHT22;11165;51.278;12.398;2022-08-21T02:03:30;18.20;99.90
22002;DHT22;11165;51.278;12.398;2022-08-21T02:05:56;18.20;99.90
22002;DHT22;11165;51.278;12.398;2022-08-21T02:08:22;18.20;99.90
22002;DHT22;11165;51.278;12.398;2022-08-21T02:10:49;18.20;99.90
22002;DHT22;11165;51.278;12.398;2022-08-21T02:13:15;18.20;99.90
22002;DHT22;11165;51.278;12.398;2022-08-21T02:15:40;18.20;99.90
22002;DHT22;11165;51.278;12.398;2022-08-21T02:18:06;18.20;99.90
22002;DHT22;11165;51.278;12.398;2022-08-21T02:20:38;18.20;99.90
22002;DHT22;11165;51.278;12.398;2022-08-21T02:23:06;18.20;99.90
22002;DHT22;11165;51.278;12.398;2022-08-21T02:25:33;18.20;99.90
22002;DHT22;11165;51.278;12.398;2022-08-21T02:28:03;18.20;99.90
22002;DHT22;11165;51.278;12.398;2022-08-21T02:30:33;18.20;99.90
22002;DHT22;11165;51.278;12.398;2022-08-21T02:32:59;18.20;99.90
22002;DHT22;11165;51.278;12.398;2022-08-21T02:35:25;18.20;99.90
22002;DHT22;11165;51.278;12.398;2022-08-21T02:37:55;18.20;99.90
22002;DHT22;11165;51.278;12.398;2022-08-21T02:40:24;18.20;99.90
22002;DHT22;11165;51.278;12.398;2022-08-21T02:42:50;18.10;99.90
22002;DHT22;11165;51.278;12.398;2022-08-21T02:45:17;18.10;99.90
22002;DHT22;11165;51.278;12.398;2022-08-21T02:47:57;18.10;99.90
22002;DHT22;11165;51.278;12.398;2022-08-21T02:50:29;18.10;99.90
22002;DHT22;11165;51.278;12.398;2022-08-21T02:52:56;18.10;99.90
22002;DHT22;11165;51.278;12.398;2022-08-21T02:55:23;18.00;99.90
22002;DHT22;11165;51.278;12.398;2022-08-21T02:57:49;18.10;99.90
22002;DHT22;11165;51.278;12.398;2022-08-21T03:00:15;18.10;99.90
22002;DHT22;11165;51.278;12.398;2022-08-21T03:02:41;18.00;99.90
22002;DHT22;11165;51.278;12.398;2022-08-21T03:05:08;18.00;99.90
22002;DHT22;11165;51.278;12.398;2022-08-21T03:07:37;18.00;99.90
22002;DHT22;11165;51.278;12.398;2022-08-21T03:10:04;18.00;99.90
22002;DHT22;11165;51.278;12.398;2022-08-21T03:12:30;17.90;99.90
22002;DHT22;11165;51.278;12.398;2022-08-21T03:14:55;17.90;99.90
22002;DHT22;11165;51.278;12.398;2022-08-21T03:17:22;17.80;99.90
22002;DHT22;11165;51.278;12.398;2022-08-21T03:19:48;17.70;99.90
22002;DHT22;11165;51.278;12.398;2022-08-21T03:22:13;17.70;99.90
22002;DHT22;11165;51.278;12.398;2022-08-21T03:24:39;17.70;99.90
22002;DHT22;11165;51.278;12.398;2022-08-21T03:27:04;17.60;99.90
22002;DHT22;11165;51.278;12.398;2022-08-21T03:29:30;17.60;99.90
22002;DHT22;11165;51.278;12.398;2022-08-21T03:31:55;17.60;99.90
22002;DHT22;11165;51.278;12.398;2022-08-21T03:34:21;17.60;99.90
22002;DHT22;11165;51.278;12.398;2022-08-21T03:36:48;17.60;99.90
22002;DHT22;11165;51.278;12.398;2022-08-21T03:39:15;17.60;99.90
22002;DHT22;11165;51.278;12.398;2022-08-21T03:41:41;17.60;99.90
22002;DHT22;11165;51.278;12.398;2022-08-21T03:44:07;17.60;99.90
22002;DHT22;11165;51.278;12.398;2022-08-21T03:46:33;17.60;99.90
22002;DHT22;11165;51.278;12.398;2022-08-21T03:48:59;17.60;99.90
22002;DHT22;11165;51.278;12.398;2022-08-21T03:51:25;17.60;99.90
22002;DHT22;11165;51.278;12.398;2022-08-21T03:53:51;17.60;99.90
22002;DHT22;11165;51.278;12.398;2022-08-21T03:56:16;17.60;99.90
22002;DHT22;11165;51.278;12.398;2022-08-21T03:58:42;17.60;99.90
22002;DHT22;11165;51.278;12.398;2022-08-21T04:01:08;17.60;99.90
22002;DHT22;11165;51.278;12.398;2022-08-21T04:03:35;17.60;99.90
22002;DHT22;11165;51.278;12.398;2022-08-21T04:06:01;17.60;99.90
22002;DHT22;11165;51.278;12.398;2022-08-21T04:08:26;17.60;99.90
22002;DHT22;11165;51.278;12.398;2022-08-21T04:10:54;17.60;99.90
22002;DHT22;11165;51.278;12.398;2022-08-21T04:13:21;17.60;99.90
22002;DHT22;11165;51.278;12.398;2022-08-21T04:15:47;17.60;99.90
22002;DHT22;11165;51.278;12.398;2022-08-21T04:18:13;17.60;99.90
22002;DHT22;11165;51.278;12.398;2022-08-21T04:20:40;17.50;99.90
22002;DHT22;11165;51.278;12.398;2022-08-21T04:23:06;17.50;99.90
22002;DHT22;11165;51.278;12.398;2022-08-21T04:25:32;17.50;99.90
22002;DHT22;11165;51.278;12.398;2022-08-21T04:27:57;17.50;99.90
22002;DHT22;11165;51.278;12.398;2022-08-21T04:30:23;17.50;99.90
22002;DHT22;11165;51.278;12.398;2022-08-21T04:32:50;17.50;99.90
22002;DHT22;11165;51.278;12.398;2022-08-21T04:35:19;17.50;99.90
22002;DHT22;11165;51.278;12.398;2022-08-21T04:37:44;17.40;99.90
22002;DHT22;11165;51.278;12.398;2022-08-21T04:40:13;17.50;99.90
22002;DHT22;11165;51.278;12.398;2022-08-21T04:42:54;17.50;99.90
22002;DHT22;11165;51.278;12.398;2022-08-21T04:45:26;17.40;99.90
22002;DHT22;11165;51.278;12.398;2022-08-21T04:47:54;17.50;99.90
22002;DHT22;11165;51.278;12.398;2022-08-21T04:50:26;17.50;99.90
22002;DHT22;11165;51.278;12.398;2022-08-21T04:52:53;17.50;99.90
22002;DHT22;11165;51.278;12.398;2022-08-21T04:55:20;17.50;99.90
22002;DHT22;11165;51.278;12.398;2022-08-21T04:57:46;17.50;99.90
22002;DHT22;11165;51.278;12.398;2022-08-21T05:00:13;17.50;99.90
22002;DHT22;11165;51.278;12.398;2022-08-21T05:02:40;17.50;99.90
22002;DHT22;11165;51.278;12.398;2022-08-21T05:05:06;17.60;99.90
22002;DHT22;11165;51.278;12.398;2022-08-21T05:07:32;17.50;99.90
22002;DHT22;11165;51.278;12.398;2022-08-21T05:09:59;17.60;99.90
22002;DHT22;11165;51.278;12.398;2022-08-21T05:12:25;17.50;99.90
22002;DHT22;11165;51.278;12.398;2022-08-21T05:14:50;17.50;99.90
22002;DHT22;11165;51.278;12.398;2022-08-21T05:17:16;17.50;99.90
22002;DHT22;11165;51.278;12.398;2022-08-21T05:19:41;17.60;99.90
22002;DHT22;11165;51.278;12.398;2022-08-21T05:22:07;17.50;99.90
22002;DHT22;11165;51.278;12.398;2022-08-21T05:24:34;17.60;99.90
22002;DHT22;11165;51.278;12.398;2022-08-21T05:27:00;17.60;99.90
22002;DHT22;11165;51.278;12.398;2022-08-21T05:29:26;17.50;99.90
22002;DHT22;11165;51.278;12.398;2022-08-21T05:31:53;17.50;99.90
22002;DHT22;11165;51.278;12.398;2022-08-21T05:34:20;17.60;99.90
22002;DHT22;11165;51.278;12.398;2022-08-21T05:36:46;17.60;99.90
22002;DHT22;11165;51.278;12.398;2022-08-21T05:39:11;17.60;99.90
22002;DHT22;11165;51.278;12.398;2022-08-21T05:41:37;17.50;99.90
22002;DHT22;11165;51.278;12.398;2022-08-21T05:44:03;17.50;99.90
22002;DHT22;11165;51.278;12.398;2022-08-21T05:46:29;17.50;99.90
22002;DHT22;11165;51.278;12.398;2022-08-21T05:48:55;17.50;99.90
22002;DHT22;11165;51.278;12.398;2022-08-21T05:51:20;17.60;99.90
22002;DHT22;11165;51.278;12.398;2022-08-21T05:53:46;17.70;99.90
22002;DHT22;11165;51.278;12.398;2022-08-21T05:56:12;17.60;99.90
22002;DHT22;11165;51.278;12.398;2022-08-21T05:58:38;17.60;99.90
22002;DHT22;11165;51.278;12.398;2022-08-21T06:01:05;17.70;99.90
22002;DHT22;11165;51.278;12.398;2022-08-21T06:03:34;17.70;99.90
22002;DHT22;11165;51.278;12.398;2022-08-21T06:06:00;17.80;99.90
22002;DHT22;11165;51.278;12.398;2022-08-21T06:08:27;17.80;99.90
22002;DHT22;11165;51.278;12.398;2022-08-21T06:10:53;17.80;99.90
22002;DHT22;11165;51.278;12.398;2022-08-21T06:13:20;17.80;99.90
22002;DHT22;11165;51.278;12.398;2022-08-21T06:15:47;17.90;99.90
22002;DHT22;11165;51.278;12.398;2022-08-21T06:18:13;17.90;99.90
22002;DHT22;11165;51.278;12.398;2022-08-21T06:20:38;18.00;99.90
22002;DHT22;11165;51.278;12.398;2022-08-21T06:23:04;18.10;99.90
22002;DHT22;11165;51.278;12.398;2022-08-21T06:25:30;18.20;99.90
22002;DHT22;11165;51.278;12.398;2022-08-21T06:28:04;18.10;99.90
22002;DHT22;11165;51.278;12.398;2022-08-21T06:30:31;18.10;99.90
22002;DHT22;11165;51.278;12.398;2022-08-21T06:32:57;18.20;99.90
22002;DHT22;11165;51.278;12.398;2022-08-21T06:35:22;18.10;99.90
22002;DHT22;11165;51.278;12.398;2022-08-21T06:37:49;18.20;99.90
22002;DHT22;11165;51.278;12.398;2022-08-21T06:40:15;18.30;99.90
22002;DHT22;11165;51.278;12.398;2022-08-21T06:42:41;18.20;99.90
22002;DHT22;11165;51.278;12.398;2022-08-21T06:45:06;18.10;99.90
22002;DHT22;11165;51.278;12.398;2022-08-21T06:47:32;18.20;99.90
22002;DHT22;11165;51.278;12.398;2022-08-21T06:49:58;18.20;99.90
22002;DHT22;11165;51.278;12.398;2022-08-21T06:52:23;18.20;99.90
22002;DHT22;11165;51.278;12.398;2022-08-21T06:54:49;18.20;99.90
22002;DHT22;11165;51.278;12.398;2022-08-21T06:57:15;18.20;99.90
22002;DHT22;11165;51.278;12.398;2022-08-21T06:59:40;18.20;99.90
22002;DHT22;11165;51.278;12.398;2022-08-21T07:02:06;18.40;99.90
22002;DHT22;11165;51.278;12.398;2022-08-21T07:04:33;18.40;99.90
22002;DHT22;11165;51.278;12.398;2022-08-21T07:06:58;18.30;99.90
22002;DHT22;11165;51.278;12.398;2022-08-21T07:09:24;18.40;99.90
22002;DHT22;11165;51.278;12.398;2022-08-21T07:11:52;18.40;99.90
22002;DHT22;11165;51.278;12.398;2022-08-21T07:14:18;18.60;99.90
22002;DHT22;11165;51.278;12.398;2022-08-21T07:16:44;18.70;99.90
22002;DHT22;11165;51.278;12.398;2022-08-21T07:19:09;18.70;99.90
22002;DHT22;11165;51.278;12.398;2022-08-21T07:21:35;19.00;99.90
22002;DHT22;11165;51.278;12.398;2022-08-21T07:24:00;18.90;99.90
22002;DHT22;11165;51.278;12.398;2022-08-21T07:26:26;18.90;99.90
22002;DHT22;11165;51.278;12.398;2022-08-21T07:28:52;18.90;99.90
22002;DHT22;11165;51.278;12.398;2022-08-21T07:31:20;18.90;99.90
22002;DHT22;11165;51.278;12.398;2022-08-21T07:33:46;19.00;99.90
22002;DHT22;11165;51.278;12.398;2022-08-21T07:36:12;18.90;99.90
22002;DHT22;11165;51.278;12.398;2022-08-21T07:38:38;19.00;99.90
22002;DHT22;11165;51.278;12.398;2022-08-21T07:41:10;19.30;99.90
22002;DHT22;11165;51.278;12.398;2022-08-21T07:43:37;19.20;99.90
22002;DHT22;11165;51.278;12.398;2022-08-21T07:46:03;19.20;99.90
22002;DHT22;11165;51.278;12.398;2022-08-21T07:48:28;19.30;99.90
22002;DHT22;11165;51.278;12.398;2022-08-21T07:50:54;19.40;99.90
22002;DHT22;11165;51.278;12.398;2022-08-21T07:53:20;19.30;99.90
22002;DHT22;11165;51.278;12.398;2022-08-21T07:55:46;19.30;99.90
22002;DHT22;11165;51.278;12.398;2022-08-21T07:58:12;19.30;99.90
22002;DHT22;11165;51.278;12.398;2022-08-21T08:00:37;19.40;99.90
22002;DHT22;11165;51.278;12.398;2022-08-21T08:03:04;19.50;99.90
22002;DHT22;11165;51.278;12.398;2022-08-21T08:05:30;19.30;99.90
22002;DHT22;11165;51.278;12.398;2022-08-21T08:07:57;19.30;99.90
22002;DHT22;11165;51.278;12.398;2022-08-21T08:10:23;19.40;99.90
22002;DHT22;11165;51.278;12.398;2022-08-21T08:12:49;19.50;99.90
22002;DHT22;11165;51.278;12.398;2022-08-21T08:15:19;19.60;99.90
22002;DHT22;11165;51.278;12.398;2022-08-21T08:17:45;19.80;99.90
22002;DHT22;11165;51.278;12.398;2022-08-21T08:20:12;19.70;99.90
22002;DHT22;11165;51.278;12.398;2022-08-21T08:22:39;19.70;99.90
22002;DHT22;11165;51.278;12.398;2022-08-21T08:25:06;19.80;99.90
22002;DHT22;11165;51.278;12.398;2022-08-21T08:27:32;19.90;99.90
22002;DHT22;11165;51.278;12.398;2022-08-21T08:29:57;19.90;99.90
22002;DHT22;11165;51.278;12.398;2022-08-21T08:32:23;19.90;99.90
22002;DHT22;11165;51.278;12.398;2022-08-21T08:34:49;20.00;99.90
22002;DHT22;11165;51.278;12.398;2022-08-21T08:37:17;20.10;99.90
22002;DHT22;11165;51.278;12.398;2022-08-21T08:39:43;19.90;99.90
22002;DHT22;11165;51.278;12.398;2022-08-21T08:42:18;19.70;99.90
22002;DHT22;11165;51.278;12.398;2022-08-21T08:44:45;19.60;99.90
22002;DHT22;11165;51.278;12.398;2022-08-21T08:47:14;19.60;99.90
22002;DHT22;11165;51.278;12.398;2022-08-21T08:49:49;19.60;99.90
22002;DHT22;11165;51.278;12.398;2022-08-21T08:52:35;19.60;99.90
22002;DHT22;11165;51.278;12.398;2022-08-21T08:57:30;19.90;99.90
22002;DHT22;11165;51.278;12.398;2022-08-21T09:00:00;20.10;99.90
22002;DHT22;11165;51.278;12.398;2022-08-21T09:02:26;20.10;99.90
22002;DHT22;11165;51.278;12.398;2022-08-21T09:04:55;20.20;99.90
22002;DHT22;11165;51.278;12.398;2022-08-21T09:07:34;20.30;99.90
22002;DHT22;11165;51.278;12.398;2022-08-21T09:12:56;20.80;99.90
22002;DHT22;11165;51.278;12.398;2022-08-21T09:15:46;21.10;99.90
22002;DHT22;11165;51.278;12.398;2022-08-21T09:24:02;21.40;99.90
22002;DHT22;11165;51.278;12.398;2022-08-21T09:26:49;21.50;99.90
22002;DHT22;11165;51.278;12.398;2022-08-21T09:29:21;21.90;99.90
22002;DHT22;11165;51.278;12.398;2022-08-21T09:31:49;22.00;99.90
22002;DHT22;11165;51.278;12.398;2022-08-21T09:34:25;21.70;99.90
22002;DHT22;11165;51.278;12.398;2022-08-21T09:36:51;21.90;99.90
22002;DHT22;11165;51.278;12.398;2022-08-21T09:39:38;23.00;99.90
22002;DHT22;11165;51.278;12.398;2022-08-21T09:42:07;23.00;99.90
22002;DHT22;11165;51.278;12.398;2022-08-21T09:44:39;23.00;99.90
22002;DHT22;11165;51.278;12.398;2022-08-21T09:47:10;22.40;99.90
22002;DHT22;11165;51.278;12.398;2022-08-21T09:49:41;22.20;99.90
22002;DHT22;11165;51.278;12.398;2022-08-21T09:52:20;22.70;99.90
22002;DHT22;11165;51.278;12.398;2022-08-21T09:54:51;23.20;99.90
22002;DHT22;11165;51.278;12.398;2022-08-21T09:57:26;23.20;99.90
22002;DHT22;11165;51.278;12.398;2022-08-21T10:00:20;23.70;99.90
22002;DHT22;11165;51.278;12.398;2022-08-21T10:02:48;23.20;99.90
22002;DHT22;11165;51.278;12.398;2022-08-21T10:05:20;23.30;99.90
22002;DHT22;11165;51.278;12.398;2022-08-21T10:07:48;23.20;99.90
22002;DHT22;11165;51.278;12.398;2022-08-21T10:10:23;23.70;99.90
22002;DHT22;11165;51.278;12.398;2022-08-21T10:18:27;23.60;99.90
22002;DHT22;11165;51.278;12.398;2022-08-21T10:21:04;23.50;99.90
22002;DHT22;11165;51.278;12.398;2022-08-21T10:29:56;22.60;99.90
22002;DHT22;11165;51.278;12.398;2022-08-21T10:32:13;23.00;99.90
22002;DHT22;11165;51.278;12.398;2022-08-21T10:35:13;23.20;99.90
22002;DHT22;11165;51.278;12.398;2022-08-21T10:45:56;23.90;99.90
22002;DHT22;11165;51.278;12.398;2022-08-21T10:48:39;23.40;99.90
22002;DHT22;11165;51.278;12.398;2022-08-21T10:51:18;23.20;99.90
22002;DHT22;11165;51.278;12.398;2022-08-21T10:53:53;23.00;99.90
22002;DHT22;11165;51.278;12.398;2022-08-21T10:56:30;23.40;99.90
22002;DHT22;11165;51.278;12.398;2022-08-21T11:04:28;23.90;99.90
22002;DHT22;11165;51.278;12.398;2022-08-21T11:07:14;23.40;99.90
22002;DHT22;11165;51.278;12.398;2022-08-21T11:09:43;23.60;99.90
22002;DHT22;11165;51.278;12.398;2022-08-21T11:12:34;23.30;99.90
22002;DHT22;11165;51.278;12.398;2022-08-21T11:17:43;23.30;99.90
22002;DHT22;11165;51.278;12.398;2022-08-21T11:20:15;24.00;99.90
22002;DHT22;11165;51.278;12.398;2022-08-21T11:25:47;23.80;99.10
22002;DHT22;11165;51.278;12.398;2022-08-21T11:28:31;23.80;99.90
22002;DHT22;11165;51.278;12.398;2022-08-21T11:33:31;23.60;99.90
22002;DHT22;11165;51.278;12.398;2022-08-21T11:38:41;23.40;99.90
22002;DHT22;11165;51.278;12.398;2022-08-21T11:41:22;23.50;99.10
22002;DHT22;11165;51.278;12.398;2022-08-21T11:44:12;23.70;98.50
22002;DHT22;11165;51.278;12.398;2022-08-21T11:48:00;23.60;99.90
22002;DHT22;11165;51.278;12.398;2022-08-21T11:50:06;24.10;99.90
22002;DHT22;11165;51.278;12.398;2022-08-21T11:52:41;24.60;99.90
22002;DHT22;11165;51.278;12.398;2022-08-21T11:57:56;23.60;99.90
22002;DHT22;11165;51.278;12.398;2022-08-21T12:00:30;23.80;98.30
22002;DHT22;11165;51.278;12.398;2022-08-21T12:03:06;23.70;98.70
22002;DHT22;11165;51.278;12.398;2022-08-21T12:05:36;23.40;99.10
22002;DHT22;11165;51.278;12.398;2022-08-21T12:10:41;24.00;99.90
22002;DHT22;11165;51.278;12.398;2022-08-21T12:13:11;23.90;98.40
22002;DHT22;11165;51.278;12.398;2022-08-21T12:15:46;24.10;97.50
22002;DHT22;11165;51.278;12.398;2022-08-21T12:18:44;24.30;96.80
22002;DHT22;11165;51.278;12.398;2022-08-21T12:21:27;24.00;96.50
22002;DHT22;11165;51.278;12.398;2022-08-21T12:24:15;23.90;98.50
22002;DHT22;11165;51.278;12.398;2022-08-21T12:29:49;23.30;98.80
22002;DHT22;11165;51.278;12.398;2022-08-21T12:34:49;23.10;99.10
22002;DHT22;11165;51.278;12.398;2022-08-21T12:39:44;23.40;99.60
22002;DHT22;11165;51.278;12.398;2022-08-21T12:42:20;23.20;98.60
22002;DHT22;11165;51.278;12.398;2022-08-21T12:44:53;23.30;99.00
22002;DHT22;11165;51.278;12.398;2022-08-21T12:47:52;23.60;99.50
22002;DHT22;11165;51.278;12.398;2022-08-21T12:50:31;23.60;97.10
22002;DHT22;11165;51.278;12.398;2022-08-21T12:53:22;23.40;99.10
22002;DHT22;11165;51.278;12.398;2022-08-21T12:55:50;23.50;98.90
22002;DHT22;11165;51.278;12.398;2022-08-21T12:58:23;23.60;98.90
22002;DHT22;11165;51.278;12.398;2022-08-21T13:03:44;23.80;96.90
22002;DHT22;11165;51.278;12.398;2022-08-21T13:06:15;24.00;97.00
22002;DHT22;11165;51.278;12.398;2022-08-21T13:08:43;23.90;96.40
22002;DHT22;11165;51.278;12.398;2022-08-21T13:11:10;24.20;98.90
22002;DHT22;11165;51.278;12.398;2022-08-21T13:13:36;24.60;97.70
22002;DHT22;11165;51.278;12.398;2022-08-21T13:16:05;24.90;96.70
22002;DHT22;11165;51.278;12.398;2022-08-21T13:18:34;24.90;95.60
22002;DHT22;11165;51.278;12.398;2022-08-21T13:21:30;24.80;95.60
22002;DHT22;11165;51.278;12.398;2022-08-21T13:24:17;24.40;94.10
22002;DHT22;11165;51.278;12.398;2022-08-21T13:26:44;24.30;96.10
22002;DHT22;11165;51.278;12.398;2022-08-21T13:29:11;24.20;95.30
22002;DHT22;11165;51.278;12.398;2022-08-21T13:31:39;24.40;95.40
22002;DHT22;11165;51.278;12.398;2022-08-21T13:34:08;24.50;94.90
22002;DHT22;11165;51.278;12.398;2022-08-21T13:36:39;24.20;95.90
22002;DHT22;11165;51.278;12.398;2022-08-21T13:39:09;24.00;96.50
22002;DHT22;11165;51.278;12.398;2022-08-21T13:41:38;24.10;94.80
22002;DHT22;11165;51.278;12.398;2022-08-21T13:44:16;24.20;95.00
22002;DHT22;11165;51.278;12.398;2022-08-21T13:46:42;24.20;95.30
22002;DHT22;11165;51.278;12.398;2022-08-21T13:49:10;24.00;95.80
22002;DHT22;11165;51.278;12.398;2022-08-21T13:51:37;23.80;96.10
22002;DHT22;11165;51.278;12.398;2022-08-21T13:54:38;23.70;96.00
22002;DHT22;11165;51.278;12.398;2022-08-21T13:57:00;23.90;96.00
22002;DHT22;11165;51.278;12.398;2022-08-21T13:59:31;23.90;95.30
22002;DHT22;11165;51.278;12.398;2022-08-21T14:02:00;24.00;95.30
22002;DHT22;11165;51.278;12.398;2022-08-21T14:04:33;24.10;95.30
22002;DHT22;11165;51.278;12.398;2022-08-21T14:07:00;24.20;94.10
22002;DHT22;11165;51.278;12.398;2022-08-21T14:11:53;24.20;95.30
22002;DHT22;11165;51.278;12.398;2022-08-21T14:14:34;24.30;94.30
22002;DHT22;11165;51.278;12.398;2022-08-21T14:17:10;24.30;94.60
22002;DHT22;11165;51.278;12.398;2022-08-21T14:19:44;24.30;94.90
22002;DHT22;11165;51.278;12.398;2022-08-21T14:25:26;24.70;95.40
22002;DHT22;11165;51.278;12.398;2022-08-21T14:27:59;24.90;96.20
22002;DHT22;11165;51.278;12.398;2022-08-21T14:30:31;25.10;95.30
22002;DHT22;11165;51.278;12.398;2022-08-21T14:32:59;25.10;95.00
22002;DHT22;11165;51.278;12.398;2022-08-21T14:35:25;25.00;93.60
22002;DHT22;11165;51.278;12.398;2022-08-21T14:37:52;24.90;95.00
22002;DHT22;11165;51.278;12.398;2022-08-21T14:40:19;25.10;94.50
22002;DHT22;11165;51.278;12.398;2022-08-21T14:42:45;25.10;92.40
22002;DHT22;11165;51.278;12.398;2022-08-21T14:45:17;24.80;94.90
22002;DHT22;11165;51.278;12.398;2022-08-21T14:47:43;24.90;92.50
22002;DHT22;11165;51.278;12.398;2022-08-21T14:50:11;24.80;92.60
22002;DHT22;11165;51.278;12.398;2022-08-21T14:52:37;24.70;92.40
22002;DHT22;11165;51.278;12.398;2022-08-21T14:55:04;24.90;92.80
22002;DHT22;11165;51.278;12.398;2022-08-21T14:57:30;24.90;93.50
22002;DHT22;11165;51.278;12.398;2022-08-21T14:59:57;25.10;95.00
22002;DHT22;11165;51.278;12.398;2022-08-21T15:02:22;25.20;92.10
22002;DHT22;11165;51.278;12.398;2022-08-21T15:04:48;24.90;92.70
22002;DHT22;11165;51.278;12.398;2022-08-21T15:07:14;24.70;94.20
22002;DHT22;11165;51.278;12.398;2022-08-21T15:09:39;24.60;94.20
22002;DHT22;11165;51.278;12.398;2022-08-21T15:12:06;24.50;93.70
22002;DHT22;11165;51.278;12.398;2022-08-21T15:14:34;24.50;92.10
22002;DHT22;11165;51.278;12.398;2022-08-21T15:17:01;24.50;91.80
22002;DHT22;11165;51.278;12.398;2022-08-21T15:19:28;24.30;93.00
22002;DHT22;11165;51.278;12.398;2022-08-21T15:21:55;24.50;92.20
22002;DHT22;11165;51.278;12.398;2022-08-21T15:24:20;24.70;92.40
22002;DHT22;11165;51.278;12.398;2022-08-21T15:26:47;24.70;92.80
22002;DHT22;11165;51.278;12.398;2022-08-21T15:29:13;24.90;92.40
22002;DHT22;11165;51.278;12.398;2022-08-21T15:31:56;24.80;93.00
22002;DHT22;11165;51.278;12.398;2022-08-21T15:34:22;24.90;92.30
22002;DHT22;11165;51.278;12.398;2022-08-21T15:36:48;24.90;92.90
22002;DHT22;11165;51.278;12.398;2022-08-21T15:39:14;24.70;92.50
22002;DHT22;11165;51.278;12.398;2022-08-21T15:41:40;24.60;92.60
22002;DHT22;11165;51.278;12.398;2022-08-21T15:44:05;24.80;92.10
22002;DHT22;11165;51.278;12.398;2022-08-21T15:46:31;25.00;91.40
22002;DHT22;11165;51.278;12.398;2022-08-21T15:48:57;24.90;92.20
22002;DHT22;11165;51.278;12.398;2022-08-21T15:51:22;24.70;93.10
22002;DHT22;11165;51.278;12.398;2022-08-21T15:53:48;24.70;93.70
22002;DHT22;11165;51.278;12.398;2022-08-21T15:56:35;25.00;93.90
22002;DHT22;11165;51.278;12.398;2022-08-21T15:59:13;24.90;92.70
22002;DHT22;11165;51.278;12.398;2022-08-21T16:01:40;25.00;92.80
22002;DHT22;11165;51.278;12.398;2022-08-21T16:04:06;25.00;92.70
22002;DHT22;11165;51.278;12.398;2022-08-21T16:06:32;25.00;93.10
22002;DHT22;11165;51.278;12.398;2022-08-21T16:08:59;24.90;92.30
22002;DHT22;11165;51.278;12.398;2022-08-21T16:11:25;24.70;91.70
22002;DHT22;11165;51.278;12.398;2022-08-21T16:13:51;24.50;91.30
22002;DHT22;11165;51.278;12.398;2022-08-21T16:16:20;24.60;93.00
22002;DHT22;11165;51.278;12.398;2022-08-21T16:18:46;24.70;93.10
22002;DHT22;11165;51.278;12.398;2022-08-21T16:21:12;24.70;92.60
22002;DHT22;11165;51.278;12.398;2022-08-21T16:23:38;24.70;91.50
22002;DHT22;11165;51.278;12.398;2022-08-21T16:26:05;24.70;92.10
22002;DHT22;11165;51.278;12.398;2022-08-21T16:28:33;24.80;92.80
22002;DHT22;11165;51.278;12.398;2022-08-21T16:31:01;24.70;93.70
22002;DHT22;11165;51.278;12.398;2022-08-21T16:33:33;24.70;92.20
22002;DHT22;11165;51.278;12.398;2022-08-21T16:36:00;24.50;92.20
22002;DHT22;11165;51.278;12.398;2022-08-21T16:38:27;24.40;93.40